sensor_id;sensor_type;location;lat;lon;timestamp;pressure;altitude;pressure_sealevel;temperature
75822;BMP180;64454;51.984;9.838;2024-01-30T00:02:11;101448.00;;;6.20
75822;BMP180;64454;51.984;9.838;2024-01-30T00:04:37;101445.00;;;6.40
75822;BMP180;64454;51.984;9.838;2024-01-30T00:07:04;101448.00;;;6.20
75822;BMP180;64454;51.984;9.838;2024-01-30T00:09:30;101456.00;;;6.10
75822;BMP180;64454;51.984;9.838;2024-01-30T00:11:56;101455.00;;;6.00
75822;BMP180;64454;51.984;9.838;2024-01-30T00:14:22;101447.00;;;6.20
75822;BMP180;64454;51.984;9.838;2024-01-30T00:16:50;101452.00;;;6.30
75822;BMP180;64454;51.984;9.838;2024-01-30T00:19:17;101452.00;;;6.20
75822;BMP180;64454;51.984;9.838;2024-01-30T00:21:43;101441.00;;;6.40
75822;BMP180;64454;51.984;9.838;2024-01-30T00:24:09;101442.00;;;6.30
75822;BMP180;64454;51.984;9.838;2024-01-30T00:26:36;101443.00;;;6.00
75822;BMP180;64454;51.984;9.838;2024-01-30T00:29:02;101450.00;;;6.10
75822;BMP180;64454;51.984;9.838;2024-01-30T00:31:28;101453.00;;;5.80
75822;BMP180;64454;51.984;9.838;2024-01-30T00:33:55;101453.00;;;5.50
75822;BMP180;64454;51.984;9.838;2024-01-30T00:36:22;101454.00;;;5.50
75822;BMP180;64454;51.984;9.838;2024-01-30T00:38:48;101450.00;;;5.50
75822;BMP180;64454;51.984;9.838;2024-01-30T00:41:14;101455.00;;;5.80
75822;BMP180;64454;51.984;9.838;2024-01-30T00:43:43;101454.00;;;5.50
75822;BMP180;64454;51.984;9.838;2024-01-30T00:46:09;101437.00;;;5.80
75822;BMP180;64454;51.984;9.838;2024-01-30T00:48:35;101453.00;;;5.60
75822;BMP180;64454;51.984;9.838;2024-01-30T00:51:01;101453.00;;;5.40
75822;BMP180;64454;51.984;9.838;2024-01-30T00:53:28;101462.00;;;5.30
75822;BMP180;64454;51.984;9.838;2024-01-30T00:55:54;101444.00;;;5.00
75822;BMP180;64454;51.984;9.838;2024-01-30T00:58:20;101457.00;;;5.30
75822;BMP180;64454;51.984;9.838;2024-01-30T01:00:46;101453.00;;;6.00
75822;BMP180;64454;51.984;9.838;2024-01-30T01:03:12;101457.00;;;5.10
75822;BMP180;64454;51.984;9.838;2024-01-30T01:05:39;101461.00;;;5.30
75822;BMP180;64454;51.984;9.838;2024-01-30T01:08:06;101466.00;;;5.20
75822;BMP180;64454;51.984;9.838;2024-01-30T01:10:33;101460.00;;;5.40
75822;BMP180;64454;51.984;9.838;2024-01-30T01:12:59;101464.00;;;5.40
75822;BMP180;64454;51.984;9.838;2024-01-30T01:15:25;101461.00;;;5.40
75822;BMP180;64454;51.984;9.838;2024-01-30T01:17:51;101461.00;;;4.80
75822;BMP180;64454;51.984;9.838;2024-01-30T01:20:17;101457.00;;;4.70
75822;BMP180;64454;51.984;9.838;2024-01-30T01:22:43;101459.00;;;5.00
75822;BMP180;64454;51.984;9.838;2024-01-30T01:25:09;101461.00;;;5.10
75822;BMP180;64454;51.984;9.838;2024-01-30T01:27:36;101459.00;;;5.10
75822;BMP180;64454;51.984;9.838;2024-01-30T01:30:09;101464.00;;;5.10
75822;BMP180;64454;51.984;9.838;2024-01-30T01:32:35;101456.00;;;5.20
75822;BMP180;64454;51.984;9.838;2024-01-30T01:35:02;101457.00;;;4.70
75822;BMP180;64454;51.984;9.838;2024-01-30T01:37:31;101466.00;;;4.60
75822;BMP180;64454;51.984;9.838;2024-01-30T01:39:57;101458.00;;;4.90
75822;BMP180;64454;51.984;9.838;2024-01-30T01:42:23;101459.00;;;4.60
75822;BMP180;64454;51.984;9.838;2024-01-30T01:44:50;101463.00;;;4.80
75822;BMP180;64454;51.984;9.838;2024-01-30T01:47:16;101461.00;;;4.50
75822;BMP180;64454;51.984;9.838;2024-01-30T01:49:42;101449.00;;;4.50
75822;BMP180;64454;51.984;9.838;2024-01-30T01:52:09;101447.00;;;4.50
75822;BMP180;64454;51.984;9.838;2024-01-30T01:54:35;101440.00;;;5.00
75822;BMP180;64454;51.984;9.838;2024-01-30T01:57:03;101438.00;;;4.80
75822;BMP180;64454;51.984;9.838;2024-01-30T01:59:29;101442.00;;;4.50
75822;BMP180;64454;51.984;9.838;2024-01-30T02:01:57;101438.00;;;4.70
75822;BMP180;64454;51.984;9.838;2024-01-30T02:04:23;101440.00;;;4.70
75822;BMP180;64454;51.984;9.838;2024-01-30T02:06:49;101438.00;;;4.80
75822;BMP180;64454;51.984;9.838;2024-01-30T02:09:16;101440.00;;;4.50
75822;BMP180;64454;51.984;9.838;2024-01-30T02:11:42;101437.00;;;4.20
75822;BMP180;64454;51.984;9.838;2024-01-30T02:14:08;101437.00;;;4.40
75822;BMP180;64454;51.984;9.838;2024-01-30T02:16:34;101429.00;;;4.60
75822;BMP180;64454;51.984;9.838;2024-01-30T02:19:01;101429.00;;;4.50
75822;BMP180;64454;51.984;9.838;2024-01-30T02:21:28;101426.00;;;4.60
75822;BMP180;64454;51.984;9.838;2024-01-30T02:23:55;101424.00;;;4.70
75822;BMP180;64454;51.984;9.838;2024-01-30T02:26:21;101424.00;;;4.60
75822;BMP180;64454;51.984;9.838;2024-01-30T02:28:47;101421.00;;;4.70
75822;BMP180;64454;51.984;9.838;2024-01-30T02:31:13;101418.00;;;4.60
75822;BMP180;64454;51.984;9.838;2024-01-30T02:33:39;101415.00;;;4.50
75822;BMP180;64454;51.984;9.838;2024-01-30T02:36:05;101413.00;;;4.50
75822;BMP180;64454;51.984;9.838;2024-01-30T02:38:33;101407.00;;;4.40
75822;BMP180;64454;51.984;9.838;2024-01-30T02:40:59;101404.00;;;4.20
75822;BMP180;64454;51.984;9.838;2024-01-30T02:43:25;101392.00;;;4.30
75822;BMP180;64454;51.984;9.838;2024-01-30T02:45:51;101397.00;;;4.20
75822;BMP180;64454;51.984;9.838;2024-01-30T02:48:17;101400.00;;;4.30
75822;BMP180;64454;51.984;9.838;2024-01-30T02:50:43;101394.00;;;4.10
75822;BMP180;64454;51.984;9.838;2024-01-30T02:53:09;101389.00;;;4.00
75822;BMP180;64454;51.984;9.838;2024-01-30T02:55:36;101387.00;;;4.10
75822;BMP180;64454;51.984;9.838;2024-01-30T02:58:02;101394.00;;;4.30
75822;BMP180;64454;51.984;9.838;2024-01-30T03:00:28;101394.00;;;4.10
75822;BMP180;64454;51.984;9.838;2024-01-30T03:02:54;101388.00;;;4.00
75822;BMP180;64454;51.984;9.838;2024-01-30T03:05:21;101395.00;;;4.00
75822;BMP180;64454;51.984;9.838;2024-01-30T03:07:47;101392.00;;;4.40
75822;BMP180;64454;51.984;9.838;2024-01-30T03:10:13;101382.00;;;4.20
75822;BMP180;64454;51.984;9.838;2024-01-30T03:12:39;101383.00;;;4.30
75822;BMP180;64454;51.984;9.838;2024-01-30T03:15:06;101375.00;;;4.40
75822;BMP180;64454;51.984;9.838;2024-01-30T03:17:33;101370.00;;;4.50
75822;BMP180;64454;51.984;9.838;2024-01-30T03:19:59;101378.00;;;4.40
75822;BMP180;64454;51.984;9.838;2024-01-30T03:22:25;101369.00;;;4.30
75822;BMP180;64454;51.984;9.838;2024-01-30T03:24:51;101380.00;;;4.00
75822;BMP180;64454;51.984;9.838;2024-01-30T03:27:17;101360.00;;;4.30
75822;BMP180;64454;51.984;9.838;2024-01-30T03:29:44;101359.00;;;4.30
75822;BMP180;64454;51.984;9.838;2024-01-30T03:32:10;101360.00;;;4.40
75822;BMP180;64454;51.984;9.838;2024-01-30T03:34:36;101356.00;;;4.50
75822;BMP180;64454;51.984;9.838;2024-01-30T03:37:02;101359.00;;;4.30
75822;BMP180;64454;51.984;9.838;2024-01-30T03:39:28;101351.00;;;4.30
75822;BMP180;64454;51.984;9.838;2024-01-30T03:41:54;101362.00;;;4.20
75822;BMP180;64454;51.984;9.838;2024-01-30T03:44:20;101345.00;;;4.30
75822;BMP180;64454;51.984;9.838;2024-01-30T03:46:47;101347.00;;;4.20
75822;BMP180;64454;51.984;9.838;2024-01-30T03:49:13;101346.00;;;4.60
75822;BMP180;64454;51.984;9.838;2024-01-30T03:51:39;101347.00;;;4.70
75822;BMP180;64454;51.984;9.838;2024-01-30T03:54:05;101352.00;;;4.20
75822;BMP180;64454;51.984;9.838;2024-01-30T03:56:32;101349.00;;;4.40
75822;BMP180;64454;51.984;9.838;2024-01-30T03:58:58;101341.00;;;4.60
75822;BMP180;64454;51.984;9.838;2024-01-30T04:01:26;101342.00;;;4.70
75822;BMP180;64454;51.984;9.838;2024-01-30T04:03:52;101360.00;;;5.00
75822;BMP180;64454;51.984;9.838;2024-01-30T04:06:19;101349.00;;;4.70
75822;BMP180;64454;51.984;9.838;2024-01-30T04:08:45;101355.00;;;4.80
75822;BMP180;64454;51.984;9.838;2024-01-30T04:11:11;101349.00;;;5.10
75822;BMP180;64454;51.984;9.838;2024-01-30T04:13:37;101341.00;;;4.30
75822;BMP180;64454;51.984;9.838;2024-01-30T04:16:05;101333.00;;;4.50
75822;BMP180;64454;51.984;9.838;2024-01-30T04:18:31;101338.00;;;4.30
75822;BMP180;64454;51.984;9.838;2024-01-30T04:20:59;101338.00;;;4.40
75822;BMP180;64454;51.984;9.838;2024-01-30T04:23:25;101333.00;;;4.70
75822;BMP180;64454;51.984;9.838;2024-01-30T04:25:51;101327.00;;;4.90
75822;BMP180;64454;51.984;9.838;2024-01-30T04:28:18;101322.00;;;5.50
75822;BMP180;64454;51.984;9.838;2024-01-30T04:30:44;101325.00;;;5.10
75822;BMP180;64454;51.984;9.838;2024-01-30T04:33:10;101329.00;;;5.40
75822;BMP180;64454;51.984;9.838;2024-01-30T04:35:37;101321.00;;;5.60
75822;BMP180;64454;51.984;9.838;2024-01-30T04:38:04;101325.00;;;5.30
75822;BMP180;64454;51.984;9.838;2024-01-30T04:40:30;101337.00;;;5.20
75822;BMP180;64454;51.984;9.838;2024-01-30T04:42:56;101326.00;;;5.40
75822;BMP180;64454;51.984;9.838;2024-01-30T04:45:22;101330.00;;;5.50
75822;BMP180;64454;51.984;9.838;2024-01-30T04:47:48;101335.00;;;5.30
75822;BMP180;64454;51.984;9.838;2024-01-30T04:50:14;101331.00;;;5.40
75822;BMP180;64454;51.984;9.838;2024-01-30T04:52:40;101334.00;;;5.60
75822;BMP180;64454;51.984;9.838;2024-01-30T04:55:08;101325.00;;;5.60
75822;BMP180;64454;51.984;9.838;2024-01-30T04:57:34;101329.00;;;5.70
75822;BMP180;64454;51.984;9.838;2024-01-30T05:00:00;101339.00;;;5.70
75822;BMP180;64454;51.984;9.838;2024-01-30T05:02:27;101335.00;;;5.60
75822;BMP180;64454;51.984;9.838;2024-01-30T05:04:53;101329.00;;;5.70
75822;BMP180;64454;51.984;9.838;2024-01-30T05:07:20;101338.00;;;5.70
75822;BMP180;64454;51.984;9.838;2024-01-30T05:09:46;101339.00;;;5.60
75822;BMP180;64454;51.984;9.838;2024-01-30T05:12:13;101334.00;;;6.00
75822;BMP180;64454;51.984;9.838;2024-01-30T05:14:39;101335.00;;;5.90
75822;BMP180;64454;51.984;9.838;2024-01-30T05:17:05;101330.00;;;5.80
75822;BMP180;64454;51.984;9.838;2024-01-30T05:19:31;101335.00;;;5.60
75822;BMP180;64454;51.984;9.838;2024-01-30T05:21:57;101331.00;;;5.80
75822;BMP180;64454;51.984;9.838;2024-01-30T05:24:23;101336.00;;;5.90
75822;BMP180;64454;51.984;9.838;2024-01-30T05:26:49;101333.00;;;5.80
75822;BMP180;64454;51.984;9.838;2024-01-30T05:29:17;101339.00;;;5.60
75822;BMP180;64454;51.984;9.838;2024-01-30T05:31:43;101328.00;;;5.80
75822;BMP180;64454;51.984;9.838;2024-01-30T05:34:09;101326.00;;;5.70
75822;BMP180;64454;51.984;9.838;2024-01-30T05:36:35;101324.00;;;6.10
75822;BMP180;64454;51.984;9.838;2024-01-30T05:39:01;101330.00;;;6.00
75822;BMP180;64454;51.984;9.838;2024-01-30T05:41:28;101322.00;;;5.70
75822;BMP180;64454;51.984;9.838;2024-01-30T05:43:54;101322.00;;;5.70
75822;BMP180;64454;51.984;9.838;2024-01-30T05:46:22;101332.00;;;5.60
75822;BMP180;64454;51.984;9.838;2024-01-30T05:48:48;101324.00;;;5.60
75822;BMP180;64454;51.984;9.838;2024-01-30T05:51:14;101333.00;;;5.70
75822;BMP180;64454;51.984;9.838;2024-01-30T05:53:40;101344.00;;;5.50
75822;BMP180;64454;51.984;9.838;2024-01-30T05:56:06;101330.00;;;6.00
75822;BMP180;64454;51.984;9.838;2024-01-30T05:58:32;101339.00;;;5.90
75822;BMP180;64454;51.984;9.838;2024-01-30T06:00:59;101336.00;;;6.00
75822;BMP180;64454;51.984;9.838;2024-01-30T06:03:25;101326.00;;;5.80
75822;BMP180;64454;51.984;9.838;2024-01-30T06:05:52;101333.00;;;5.80
75822;BMP180;64454;51.984;9.838;2024-01-30T06:08:18;101328.00;;;5.80
75822;BMP180;64454;51.984;9.838;2024-01-30T06:10:44;101333.00;;;5.60
75822;BMP180;64454;51.984;9.838;2024-01-30T06:13:10;101336.00;;;5.50
75822;BMP180;64454;51.984;9.838;2024-01-30T06:15:37;101332.00;;;5.50
75822;BMP180;64454;51.984;9.838;2024-01-30T06:18:04;101334.00;;;5.60
75822;BMP180;64454;51.984;9.838;2024-01-30T06:20:30;101330.00;;;5.40
75822;BMP180;64454;51.984;9.838;2024-01-30T06:22:56;101322.00;;;5.60
75822;BMP180;64454;51.984;9.838;2024-01-30T06:25:23;101326.00;;;5.70
75822;BMP180;64454;51.984;9.838;2024-01-30T06:27:49;101326.00;;;5.70
75822;BMP180;64454;51.984;9.838;2024-01-30T06:30:16;101329.00;;;5.80
75822;BMP180;64454;51.984;9.838;2024-01-30T06:32:42;101323.00;;;5.80
75822;BMP180;64454;51.984;9.838;2024-01-30T06:35:08;101327.00;;;5.80
75822;BMP180;64454;51.984;9.838;2024-01-30T06:37:36;101320.00;;;5.70
75822;BMP180;64454;51.984;9.838;2024-01-30T06:40:03;101323.00;;;5.80
75822;BMP180;64454;51.984;9.838;2024-01-30T06:42:31;101327.00;;;5.30
75822;BMP180;64454;51.984;9.838;2024-01-30T06:44:57;101321.00;;;5.20
75822;BMP180;64454;51.984;9.838;2024-01-30T06:47:23;101329.00;;;5.40
75822;BMP180;64454;51.984;9.838;2024-01-30T06:49:49;101325.00;;;5.40
75822;BMP180;64454;51.984;9.838;2024-01-30T06:52:15;101320.00;;;5.20
75822;BMP180;64454;51.984;9.838;2024-01-30T06:54:42;101321.00;;;5.20
75822;BMP180;64454;51.984;9.838;2024-01-30T06:57:08;101320.00;;;5.20
75822;BMP180;64454;51.984;9.838;2024-01-30T06:59:37;101322.00;;;5.10
75822;BMP180;64454;51.984;9.838;2024-01-30T07:02:09;101320.00;;;4.90
75822;BMP180;64454;51.984;9.838;2024-01-30T07:04:35;101320.00;;;4.80
75822;BMP180;64454;51.984;9.838;2024-01-30T07:07:03;101320.00;;;4.80
75822;BMP180;64454;51.984;9.838;2024-01-30T07:09:30;101313.00;;;4.90
75822;BMP180;64454;51.984;9.838;2024-01-30T07:11:57;101317.00;;;4.80
75822;BMP180;64454;51.984;9.838;2024-01-30T07:14:23;101320.00;;;4.90
75822;BMP180;64454;51.984;9.838;2024-01-30T07:16:50;101320.00;;;4.90
75822;BMP180;64454;51.984;9.838;2024-01-30T07:19:16;101317.00;;;5.10
75822;BMP180;64454;51.984;9.838;2024-01-30T07:21:42;101323.00;;;4.80
75822;BMP180;64454;51.984;9.838;2024-01-30T07:24:08;101328.00;;;4.90
75822;BMP180;64454;51.984;9.838;2024-01-30T07:26:34;101321.00;;;5.00
75822;BMP180;64454;51.984;9.838;2024-01-30T07:29:02;101327.00;;;5.00
75822;BMP180;64454;51.984;9.838;2024-01-30T07:31:28;101319.00;;;5.20
75822;BMP180;64454;51.984;9.838;2024-01-30T07:33:55;101318.00;;;5.50
75822;BMP180;64454;51.984;9.838;2024-01-30T07:36:21;101314.00;;;5.20
75822;BMP180;64454;51.984;9.838;2024-01-30T07:38:47;101318.00;;;5.40
75822;BMP180;64454;51.984;9.838;2024-01-30T07:41:13;101320.00;;;5.20
75822;BMP180;64454;51.984;9.838;2024-01-30T07:43:39;101315.00;;;5.10
75822;BMP180;64454;51.984;9.838;2024-01-30T07:46:06;101319.00;;;5.40
75822;BMP180;64454;51.984;9.838;2024-01-30T07:48:32;101323.00;;;5.30
75822;BMP180;64454;51.984;9.838;2024-01-30T07:50:59;101318.00;;;5.50
75822;BMP180;64454;51.984;9.838;2024-01-30T07:53:25;101321.00;;;5.40
75822;BMP180;64454;51.984;9.838;2024-01-30T07:55:52;101318.00;;;5.50
75822;BMP180;64454;51.984;9.838;2024-01-30T07:58:18;101316.00;;;5.60
75822;BMP180;64454;51.984;9.838;2024-01-30T08:00:44;101306.00;;;5.80
75822;BMP180;64454;51.984;9.838;2024-01-30T08:03:11;101310.00;;;5.90
75822;BMP180;64454;51.984;9.838;2024-01-30T08:05:38;101313.00;;;6.00
75822;BMP180;64454;51.984;9.838;2024-01-30T08:08:05;101312.00;;;6.10
75822;BMP180;64454;51.984;9.838;2024-01-30T08:10:31;101309.00;;;6.30
75822;BMP180;64454;51.984;9.838;2024-01-30T08:12:57;101322.00;;;6.30
75822;BMP180;64454;51.984;9.838;2024-01-30T08:15:23;101319.00;;;6.20
75822;BMP180;64454;51.984;9.838;2024-01-30T08:17:49;101322.00;;;6.10
75822;BMP180;64454;51.984;9.838;2024-01-30T08:20:21;101317.00;;;6.20
75822;BMP180;64454;51.984;9.838;2024-01-30T08:22:48;101312.00;;;6.40
75822;BMP180;64454;51.984;9.838;2024-01-30T08:25:14;101307.00;;;6.50
75822;BMP180;64454;51.984;9.838;2024-01-30T08:27:40;101304.00;;;6.60
75822;BMP180;64454;51.984;9.838;2024-01-30T08:30:07;101307.00;;;6.40
75822;BMP180;64454;51.984;9.838;2024-01-30T08:32:34;101312.00;;;6.60
75822;BMP180;64454;51.984;9.838;2024-01-30T08:35:00;101316.00;;;6.50
75822;BMP180;64454;51.984;9.838;2024-01-30T08:37:30;101318.00;;;6.50
75822;BMP180;64454;51.984;9.838;2024-01-30T08:39:56;101315.00;;;6.40
75822;BMP180;64454;51.984;9.838;2024-01-30T08:42:22;101316.00;;;6.30
75822;BMP180;64454;51.984;9.838;2024-01-30T08:44:48;101310.00;;;6.50
75822;BMP180;64454;51.984;9.838;2024-01-30T08:47:15;101315.00;;;6.40
75822;BMP180;64454;51.984;9.838;2024-01-30T08:49:42;101307.00;;;6.60
75822;BMP180;64454;51.984;9.838;2024-01-30T08:52:09;101298.00;;;6.60
75822;BMP180;64454;51.984;9.838;2024-01-30T08:54:36;101299.00;;;6.70
75822;BMP180;64454;51.984;9.838;2024-01-30T08:57:03;101293.00;;;6.90
75822;BMP180;64454;51.984;9.838;2024-01-30T08:59:30;101302.00;;;6.80
75822;BMP180;64454;51.984;9.838;2024-01-30T09:01:56;101300.00;;;7.00
75822;BMP180;64454;51.984;9.838;2024-01-30T09:04:23;101306.00;;;7.10
75822;BMP180;64454;51.984;9.838;2024-01-30T09:06:49;101303.00;;;7.30
75822;BMP180;64454;51.984;9.838;2024-01-30T09:09:16;101303.00;;;7.50
75822;BMP180;64454;51.984;9.838;2024-01-30T09:11:42;101315.00;;;7.40
75822;BMP180;64454;51.984;9.838;2024-01-30T09:14:09;101312.00;;;7.30
75822;BMP180;64454;51.984;9.838;2024-01-30T09:16:35;101311.00;;;7.30
75822;BMP180;64454;51.984;9.838;2024-01-30T09:19:01;101306.00;;;7.60
75822;BMP180;64454;51.984;9.838;2024-01-30T09:21:27;101313.00;;;7.50
75822;BMP180;64454;51.984;9.838;2024-01-30T09:23:54;101312.00;;;7.60
75822;BMP180;64454;51.984;9.838;2024-01-30T09:26:20;101320.00;;;7.60
75822;BMP180;64454;51.984;9.838;2024-01-30T09:28:47;101314.00;;;7.90
75822;BMP180;64454;51.984;9.838;2024-01-30T09:31:13;101312.00;;;7.70
75822;BMP180;64454;51.984;9.838;2024-01-30T09:33:39;101310.00;;;7.80
75822;BMP180;64454;51.984;9.838;2024-01-30T09:36:07;101309.00;;;7.90
75822;BMP180;64454;51.984;9.838;2024-01-30T09:38:33;101306.00;;;8.20
75822;BMP180;64454;51.984;9.838;2024-01-30T09:41:03;101299.00;;;8.00
75822;BMP180;64454;51.984;9.838;2024-01-30T09:43:33;101309.00;;;7.70
75822;BMP180;64454;51.984;9.838;2024-01-30T09:46:03;101306.00;;;7.90
75822;BMP180;64454;51.984;9.838;2024-01-30T09:48:30;101307.00;;;7.80
75822;BMP180;64454;51.984;9.838;2024-01-30T09:50:57;101307.00;;;8.00
75822;BMP180;64454;51.984;9.838;2024-01-30T09:53:24;101301.00;;;8.00
75822;BMP180;64454;51.984;9.838;2024-01-30T09:55:51;101298.00;;;8.10
75822;BMP180;64454;51.984;9.838;2024-01-30T09:58:17;101312.00;;;8.10
75822;BMP180;64454;51.984;9.838;2024-01-30T10:00:43;101304.00;;;8.20
75822;BMP180;64454;51.984;9.838;2024-01-30T10:03:10;101292.00;;;8.40
75822;BMP180;64454;51.984;9.838;2024-01-30T10:05:36;101299.00;;;8.40
75822;BMP180;64454;51.984;9.838;2024-01-30T10:08:06;101300.00;;;8.60
75822;BMP180;64454;51.984;9.838;2024-01-30T10:10:33;101304.00;;;8.90
75822;BMP180;64454;51.984;9.838;2024-01-30T10:12:59;101306.00;;;9.10
75822;BMP180;64454;51.984;9.838;2024-01-30T10:15:28;101314.00;;;9.00
75822;BMP180;64454;51.984;9.838;2024-01-30T10:17:54;101327.00;;;8.80
75822;BMP180;64454;51.984;9.838;2024-01-30T10:20:21;101313.00;;;9.00
75822;BMP180;64454;51.984;9.838;2024-01-30T10:22:48;101315.00;;;9.30
75822;BMP180;64454;51.984;9.838;2024-01-30T10:25:15;101315.00;;;8.90
75822;BMP180;64454;51.984;9.838;2024-01-30T10:27:41;101309.00;;;8.80
75822;BMP180;64454;51.984;9.838;2024-01-30T10:30:08;101309.00;;;8.90
75822;BMP180;64454;51.984;9.838;2024-01-30T10:32:35;101302.00;;;9.10
75822;BMP180;64454;51.984;9.838;2024-01-30T10:35:01;101289.00;;;9.30
75822;BMP180;64454;51.984;9.838;2024-01-30T10:37:31;101285.00;;;9.10
75822;BMP180;64454;51.984;9.838;2024-01-30T10:40:03;101290.00;;;9.20
75822;BMP180;64454;51.984;9.838;2024-01-30T10:42:32;101287.00;;;9.20
75822;BMP180;64454;51.984;9.838;2024-01-30T10:45:06;101288.00;;;9.20
75822;BMP180;64454;51.984;9.838;2024-01-30T10:47:35;101284.00;;;9.20
75822;BMP180;64454;51.984;9.838;2024-01-30T10:50:02;101280.00;;;9.60
75822;BMP180;64454;51.984;9.838;2024-01-30T10:52:31;101287.00;;;9.80
75822;BMP180;64454;51.984;9.838;2024-01-30T10:54:58;101284.00;;;9.70
75822;BMP180;64454;51.984;9.838;2024-01-30T10:57:25;101277.00;;;9.80
75822;BMP180;64454;51.984;9.838;2024-01-30T10:59:56;101274.00;;;10.20
75822;BMP180;64454;51.984;9.838;2024-01-30T11:02:24;101274.00;;;9.20
75822;BMP180;64454;51.984;9.838;2024-01-30T11:04:57;101284.00;;;9.10
75822;BMP180;64454;51.984;9.838;2024-01-30T11:07:25;101271.00;;;9.00
75822;BMP180;64454;51.984;9.838;2024-01-30T11:09:54;101268.00;;;9.10
75822;BMP180;64454;51.984;9.838;2024-01-30T11:12:27;101261.00;;;9.00
75822;BMP180;64454;51.984;9.838;2024-01-30T11:15:03;101253.00;;;9.20
75822;BMP180;64454;51.984;9.838;2024-01-30T11:17:50;101267.00;;;9.20
75822;BMP180;64454;51.984;9.838;2024-01-30T11:20:20;101257.00;;;9.30
75822;BMP180;64454;51.984;9.838;2024-01-30T11:22:49;101251.00;;;9.30
75822;BMP180;64454;51.984;9.838;2024-01-30T11:25:17;101263.00;;;9.20
75822;BMP180;64454;51.984;9.838;2024-01-30T11:27:44;101264.00;;;9.20
75822;BMP180;64454;51.984;9.838;2024-01-30T11:30:21;101267.00;;;9.30
75822;BMP180;64454;51.984;9.838;2024-01-30T11:32:59;101270.00;;;9.40
75822;BMP180;64454;51.984;9.838;2024-01-30T11:35:25;101271.00;;;9.00
75822;BMP180;64454;51.984;9.838;2024-01-30T11:37:52;101263.00;;;9.20
75822;BMP180;64454;51.984;9.838;2024-01-30T11:40:21;101267.00;;;9.20
75822;BMP180;64454;51.984;9.838;2024-01-30T11:42:49;101263.00;;;9.30
75822;BMP180;64454;51.984;9.838;2024-01-30T11:45:15;101262.00;;;9.30
75822;BMP180;64454;51.984;9.838;2024-01-30T11:47:43;101267.00;;;9.40
75822;BMP180;64454;51.984;9.838;2024-01-30T11:50:09;101255.00;;;9.20
75822;BMP180;64454;51.984;9.838;2024-01-30T11:52:36;101269.00;;;9.60
75822;BMP180;64454;51.984;9.838;2024-01-30T11:55:03;101258.00;;;9.20
75822;BMP180;64454;51.984;9.838;2024-01-30T11:57:30;101255.00;;;9.30
75822;BMP180;64454;51.984;9.838;2024-01-30T11:59:56;101251.00;;;9.30
75822;BMP180;64454;51.984;9.838;2024-01-30T12:02:23;101243.00;;;9.30
75822;BMP180;64454;51.984;9.838;2024-01-30T12:04:49;101243.00;;;9.20
75822;BMP180;64454;51.984;9.838;2024-01-30T12:07:15;101247.00;;;9.00
75822;BMP180;64454;51.984;9.838;2024-01-30T12:09:42;101250.00;;;9.40
75822;BMP180;64454;51.984;9.838;2024-01-30T12:12:08;101250.00;;;9.40
75822;BMP180;64454;51.984;9.838;2024-01-30T12:14:39;101230.00;;;9.30
75822;BMP180;64454;51.984;9.838;2024-01-30T12:17:05;101234.00;;;9.40
75822;BMP180;64454;51.984;9.838;2024-01-30T12:19:33;101227.00;;;9.30
75822;BMP180;64454;51.984;9.838;2024-01-30T12:21:59;101226.00;;;9.10
75822;BMP180;64454;51.984;9.838;2024-01-30T12:24:25;101233.00;;;9.10
75822;BMP180;64454;51.984;9.838;2024-01-30T12:26:52;101231.00;;;9.40
75822;BMP180;64454;51.984;9.838;2024-01-30T12:29:20;101235.00;;;9.20
75822;BMP180;64454;51.984;9.838;2024-01-30T12:31:47;101219.00;;;9.40
75822;BMP180;64454;51.984;9.838;2024-01-30T12:34:14;101228.00;;;10.00
75822;BMP180;64454;51.984;9.838;2024-01-30T12:36:42;101225.00;;;10.10
75822;BMP180;64454;51.984;9.838;2024-01-30T12:39:11;101226.00;;;10.70
75822;BMP180;64454;51.984;9.838;2024-01-30T12:41:38;101231.00;;;10.90
75822;BMP180;64454;51.984;9.838;2024-01-30T12:44:04;101237.00;;;10.90
75822;BMP180;64454;51.984;9.838;2024-01-30T12:46:31;101240.00;;;10.60
75822;BMP180;64454;51.984;9.838;2024-01-30T12:48:57;101240.00;;;10.50
75822;BMP180;64454;51.984;9.838;2024-01-30T12:51:23;101241.00;;;10.10
75822;BMP180;64454;51.984;9.838;2024-01-30T12:53:50;101235.00;;;10.10
75822;BMP180;64454;51.984;9.838;2024-01-30T12:56:16;101245.00;;;9.90
75822;BMP180;64454;51.984;9.838;2024-01-30T12:58:42;101235.00;;;10.10
75822;BMP180;64454;51.984;9.838;2024-01-30T13:01:09;101233.00;;;10.00
75822;BMP180;64454;51.984;9.838;2024-01-30T13:03:35;101232.00;;;9.50
75822;BMP180;64454;51.984;9.838;2024-01-30T13:06:02;101235.00;;;9.70
75822;BMP180;64454;51.984;9.838;2024-01-30T13:08:28;101241.00;;;9.90
75822;BMP180;64454;51.984;9.838;2024-01-30T13:10:54;101245.00;;;10.10
75822;BMP180;64454;51.984;9.838;2024-01-30T13:13:20;101249.00;;;10.00
75822;BMP180;64454;51.984;9.838;2024-01-30T13:15:47;101253.00;;;10.00
75822;BMP180;64454;51.984;9.838;2024-01-30T13:18:13;101251.00;;;10.10
75822;BMP180;64454;51.984;9.838;2024-01-30T13:20:39;101259.00;;;9.90
75822;BMP180;64454;51.984;9.838;2024-01-30T13:23:06;101241.00;;;10.00
75822;BMP180;64454;51.984;9.838;2024-01-30T13:25:32;101243.00;;;10.00
75822;BMP180;64454;51.984;9.838;2024-01-30T13:27:58;101242.00;;;9.70
75822;BMP180;64454;51.984;9.838;2024-01-30T13:30:24;101264.00;;;9.70
75822;BMP180;64454;51.984;9.838;2024-01-30T13:32:50;101260.00;;;9.60
75822;BMP180;64454;51.984;9.838;2024-01-30T13:35:16;101251.00;;;9.90
75822;BMP180;64454;51.984;9.838;2024-01-30T13:37:43;101255.00;;;9.90
75822;BMP180;64454;51.984;9.838;2024-01-30T13:40:10;101251.00;;;9.80
75822;BMP180;64454;51.984;9.838;2024-01-30T13:42:38;101248.00;;;9.70
75822;BMP180;64454;51.984;9.838;2024-01-30T13:45:05;101259.00;;;9.50
75822;BMP180;64454;51.984;9.838;2024-01-30T13:47:31;101261.00;;;9.40
75822;BMP180;64454;51.984;9.838;2024-01-30T13:49:57;101258.00;;;9.70
75822;BMP180;64454;51.984;9.838;2024-01-30T13:52:24;101261.00;;;9.70
75822;BMP180;64454;51.984;9.838;2024-01-30T13:54:50;101258.00;;;9.60
75822;BMP180;64454;51.984;9.838;2024-01-30T13:57:16;101258.00;;;9.80
75822;BMP180;64454;51.984;9.838;2024-01-30T13:59:42;101261.00;;;9.80
75822;BMP180;64454;51.984;9.838;2024-01-30T14:02:08;101255.00;;;9.80
75822;BMP180;64454;51.984;9.838;2024-01-30T14:04:35;101254.00;;;9.70
75822;BMP180;64454;51.984;9.838;2024-01-30T14:07:03;101252.00;;;9.80